sensor_id;sensor_type;location;lat;lon;timestamp;P1;durP1;ratioP1;P2;durP2;ratioP2
67867;SDS011;54672;46.096;14.470;2022-09-03T00:00:13;28.15;;;11.73;;
67867;SDS011;54672;46.096;14.470;2022-09-03T00:02:41;29.35;;;14.00;;
67867;SDS011;54672;46.096;14.470;2022-09-03T00:08:13;36.47;;;19.02;;
67867;SDS011;54672;46.096;14.470;2022-09-03T00:14:03;28.65;;;14.35;;
67867;SDS011;54672;46.096;14.470;2022-09-03T00:16:45;22.02;;;13.40;;
67867;SDS011;54672;46.096;14.470;2022-09-03T00:19:17;19.27;;;10.57;;
67867;SDS011;54672;46.096;14.470;2022-09-03T00:21:47;26.95;;;12.57;;
67867;SDS011;54672;46.096;14.470;2022-09-03T00:24:17;20.95;;;11.55;;
67867;SDS011;54672;46.096;14.470;2022-09-03T00:26:54;23.42;;;11.88;;
67867;SDS011;54672;46.096;14.470;2022-09-03T00:29:34;22.30;;;9.57;;
67867;SDS011;54672;46.096;14.470;2022-09-03T00:32:08;15.80;;;6.40;;
67867;SDS011;54672;46.096;14.470;2022-09-03T00:34:39;8.60;;;4.18;;
67867;SDS011;54672;46.096;14.470;2022-09-03T00:37:09;8.85;;;4.80;;
67867;SDS011;54672;46.096;14.470;2022-09-03T00:39:35;10.73;;;4.70;;
67867;SDS011;54672;46.096;14.470;2022-09-03T00:44:52;9.60;;;4.35;;
67867;SDS011;54672;46.096;14.470;2022-09-03T00:51:07;13.13;;;5.68;;
67867;SDS011;54672;46.096;14.470;2022-09-03T00:55:28;12.55;;;6.13;;
67867;SDS011;54672;46.096;14.470;2022-09-03T01:00:27;13.52;;;7.75;;
67867;SDS011;54672;46.096;14.470;2022-09-03T01:03:10;10.35;;;6.50;;
67867;SDS011;54672;46.096;14.470;2022-09-03T01:06:22;11.68;;;6.43;;
67867;SDS011;54672;46.096;14.470;2022-09-03T01:09:00;13.60;;;6.88;;
67867;SDS011;54672;46.096;14.470;2022-09-03T01:16:57;21.77;;;9.88;;
67867;SDS011;54672;46.096;14.470;2022-09-03T01:30:10;21.45;;;10.65;;
67867;SDS011;54672;46.096;14.470;2022-09-03T01:43:53;1999.90;;;999.90;;
67867;SDS011;54672;46.096;14.470;2022-09-03T01:46:49;24.88;;;12.02;;
67867;SDS011;54672;46.096;14.470;2022-09-03T01:49:45;15.40;;;8.27;;
67867;SDS011;54672;46.096;14.470;2022-09-03T01:52:33;15.20;;;8.80;;
67867;SDS011;54672;46.096;14.470;2022-09-03T02:00:40;16.17;;;8.88;;
67867;SDS011;54672;46.096;14.470;2022-09-03T02:03:09;16.75;;;9.57;;
67867;SDS011;54672;46.096;14.470;2022-09-03T02:05:37;21.38;;;9.02;;
67867;SDS011;54672;46.096;14.470;2022-09-03T02:08:06;18.77;;;9.00;;
67867;SDS011;54672;46.096;14.470;2022-09-03T02:15:40;11.60;;;6.88;;
67867;SDS011;54672;46.096;14.470;2022-09-03T02:18:12;12.57;;;6.00;;
67867;SDS011;54672;46.096;14.470;2022-09-03T02:20:41;12.60;;;6.68;;
67867;SDS011;54672;46.096;14.470;2022-09-03T02:23:06;15.32;;;7.43;;
67867;SDS011;54672;46.096;14.470;2022-09-03T02:25:34;11.80;;;6.60;;
67867;SDS011;54672;46.096;14.470;2022-09-03T02:28:04;16.30;;;7.97;;
67867;SDS011;54672;46.096;14.470;2022-09-03T02:30:31;18.77;;;7.38;;
67867;SDS011;54672;46.096;14.470;2022-09-03T02:32:58;16.95;;;7.88;;
67867;SDS011;54672;46.096;14.470;2022-09-03T02:35:24;12.48;;;6.20;;
67867;SDS011;54672;46.096;14.470;2022-09-03T02:37:49;13.82;;;7.65;;
67867;SDS011;54672;46.096;14.470;2022-09-03T02:40:14;12.70;;;7.07;;
67867;SDS011;54672;46.096;14.470;2022-09-03T02:42:41;13.02;;;6.40;;
67867;SDS011;54672;46.096;14.470;2022-09-03T02:45:09;15.20;;;7.05;;
67867;SDS011;54672;46.096;14.470;2022-09-03T02:47:44;10.43;;;6.05;;
67867;SDS011;54672;46.096;14.470;2022-09-03T02:50:14;15.93;;;7.32;;
67867;SDS011;54672;46.096;14.470;2022-09-03T02:52:39;15.38;;;7.97;;
67867;SDS011;54672;46.096;14.470;2022-09-03T02:55:05;19.90;;;8.38;;
67867;SDS011;54672;46.096;14.470;2022-09-03T02:57:30;17.10;;;8.05;;
67867;SDS011;54672;46.096;14.470;2022-09-03T02:59:56;19.10;;;8.95;;
67867;SDS011;54672;46.096;14.470;2022-09-03T03:02:21;16.38;;;7.45;;
67867;SDS011;54672;46.096;14.470;2022-09-03T03:04:47;16.73;;;8.70;;
67867;SDS011;54672;46.096;14.470;2022-09-03T03:07:12;17.25;;;8.70;;
67867;SDS011;54672;46.096;14.470;2022-09-03T03:09:37;19.90;;;8.38;;
67867;SDS011;54672;46.096;14.470;2022-09-03T03:12:03;15.60;;;8.20;;
67867;SDS011;54672;46.096;14.470;2022-09-03T03:14:28;13.23;;;7.15;;
67867;SDS011;54672;46.096;14.470;2022-09-03T03:16:54;15.25;;;6.80;;
67867;SDS011;54672;46.096;14.470;2022-09-03T03:19:19;20.08;;;7.65;;
67867;SDS011;54672;46.096;14.470;2022-09-03T03:21:44;17.08;;;8.40;;
67867;SDS011;54672;46.096;14.470;2022-09-03T03:24:10;18.08;;;7.38;;
67867;SDS011;54672;46.096;14.470;2022-09-03T03:26:35;14.80;;;6.95;;
67867;SDS011;54672;46.096;14.470;2022-09-03T03:29:01;12.90;;;8.07;;
67867;SDS011;54672;46.096;14.470;2022-09-03T03:31:31;14.82;;;7.65;;
67867;SDS011;54672;46.096;14.470;2022-09-03T03:33:58;16.42;;;12.32;;
67867;SDS011;54672;46.096;14.470;2022-09-03T03:36:26;1999.90;;;999.90;;
67867;SDS011;54672;46.096;14.470;2022-09-03T03:38:54;1999.90;;;999.90;;
67867;SDS011;54672;46.096;14.470;2022-09-03T03:41:22;1999.90;;;999.90;;
67867;SDS011;54672;46.096;14.470;2022-09-03T03:43:54;1999.90;;;999.90;;
67867;SDS011;54672;46.096;14.470;2022-09-03T03:46:22;1999.90;;;999.90;;
67867;SDS011;54672;46.096;14.470;2022-09-03T03:48:49;1999.90;;;999.90;;
67867;SDS011;54672;46.096;14.470;2022-09-03T03:51:15;1999.90;;;999.90;;
67867;SDS011;54672;46.096;14.470;2022-09-03T03:53:41;1013.83;;;512.67;;
67867;SDS011;54672;46.096;14.470;2022-09-03T03:56:09;1999.90;;;999.90;;
67867;SDS011;54672;46.096;14.470;2022-09-03T03:58:36;1999.90;;;999.90;;
67867;SDS011;54672;46.096;14.470;2022-09-03T04:01:11;1999.90;;;999.90;;
67867;SDS011;54672;46.096;14.470;2022-09-03T04:03:38;30.65;;;18.58;;
67867;SDS011;54672;46.096;14.470;2022-09-03T04:06:04;1999.90;;;999.90;;
67867;SDS011;54672;46.096;14.470;2022-09-03T04:08:33;23.23;;;21.63;;
67867;SDS011;54672;46.096;14.470;2022-09-03T04:11:00;1999.90;;;999.90;;
67867;SDS011;54672;46.096;14.470;2022-09-03T04:13:31;1999.90;;;999.90;;
67867;SDS011;54672;46.096;14.470;2022-09-03T04:16:01;1999.90;;;999.90;;
67867;SDS011;54672;46.096;14.470;2022-09-03T04:18:28;1999.90;;;999.90;;
67867;SDS011;54672;46.096;14.470;2022-09-03T04:21:02;1999.90;;;999.90;;
67867;SDS011;54672;46.096;14.470;2022-09-03T04:23:36;1999.90;;;999.90;;
67867;SDS011;54672;46.096;14.470;2022-09-03T04:26:03;1999.90;;;999.90;;
67867;SDS011;54672;46.096;14.470;2022-09-03T04:28:29;1999.90;;;999.90;;
67867;SDS011;54672;46.096;14.470;2022-09-03T04:30:59;1999.90;;;999.90;;
67867;SDS011;54672;46.096;14.470;2022-09-03T04:33:26;1999.90;;;999.90;;
67867;SDS011;54672;46.096;14.470;2022-09-03T04:35:51;1999.90;;;999.90;;
67867;SDS011;54672;46.096;14.470;2022-09-03T04:38:16;1999.90;;;999.90;;
67867;SDS011;54672;46.096;14.470;2022-09-03T04:40:42;7.18;;;6.63;;
67867;SDS011;54672;46.096;14.470;2022-09-03T04:43:07;1999.90;;;999.90;;
67867;SDS011;54672;46.096;14.470;2022-09-03T04:45:33;15.88;;;6.85;;
67867;SDS011;54672;46.096;14.470;2022-09-03T04:47:59;13.05;;;6.40;;
67867;SDS011;54672;46.096;14.470;2022-09-03T04:50:28;16.45;;;6.53;;
67867;SDS011;54672;46.096;14.470;2022-09-03T04:52:59;9.93;;;5.55;;
67867;SDS011;54672;46.096;14.470;2022-09-03T04:55:26;10.55;;;6.10;;
67867;SDS011;54672;46.096;14.470;2022-09-03T04:57:52;9.85;;;5.57;;
67867;SDS011;54672;46.096;14.470;2022-09-03T05:00:17;9.82;;;5.03;;
67867;SDS011;54672;46.096;14.470;2022-09-03T05:02:44;11.02;;;5.18;;
67867;SDS011;54672;46.096;14.470;2022-09-03T05:05:13;12.20;;;5.50;;
67867;SDS011;54672;46.096;14.470;2022-09-03T05:07:39;12.98;;;6.00;;
67867;SDS011;54672;46.096;14.470;2022-09-03T05:10:05;9.48;;;5.28;;
67867;SDS011;54672;46.096;14.470;2022-09-03T05:12:32;11.68;;;5.60;;
67867;SDS011;54672;46.096;14.470;2022-09-03T05:14:58;9.25;;;5.95;;
67867;SDS011;54672;46.096;14.470;2022-09-03T05:17:28;13.95;;;9.38;;
67867;SDS011;54672;46.096;14.470;2022-09-03T05:19:53;939.20;;;111.35;;
67867;SDS011;54672;46.096;14.470;2022-09-03T05:22:19;57.45;;;11.85;;
67867;SDS011;54672;46.096;14.470;2022-09-03T05:24:47;1999.90;;;999.90;;
67867;SDS011;54672;46.096;14.470;2022-09-03T05:27:13;1999.90;;;999.90;;
67867;SDS011;54672;46.096;14.470;2022-09-03T05:29:43;14.48;;;8.30;;
67867;SDS011;54672;46.096;14.470;2022-09-03T05:32:09;10.48;;;7.95;;
67867;SDS011;54672;46.096;14.470;2022-09-03T05:34:37;10.10;;;8.10;;
67867;SDS011;54672;46.096;14.470;2022-09-03T05:37:03;11.20;;;7.80;;
67867;SDS011;54672;46.096;14.470;2022-09-03T05:39:28;10.45;;;7.50;;
67867;SDS011;54672;46.096;14.470;2022-09-03T05:41:54;10.20;;;7.45;;
67867;SDS011;54672;46.096;14.470;2022-09-03T05:44:19;9.73;;;7.93;;
67867;SDS011;54672;46.096;14.470;2022-09-03T05:46:48;9.90;;;7.13;;
67867;SDS011;54672;46.096;14.470;2022-09-03T05:49:15;37.55;;;9.52;;
67867;SDS011;54672;46.096;14.470;2022-09-03T05:51:41;9.95;;;6.85;;
67867;SDS011;54672;46.096;14.470;2022-09-03T05:54:08;8.82;;;6.80;;
67867;SDS011;54672;46.096;14.470;2022-09-03T05:56:35;10.25;;;7.18;;
67867;SDS011;54672;46.096;14.470;2022-09-03T05:59:03;10.48;;;6.97;;
67867;SDS011;54672;46.096;14.470;2022-09-03T06:01:34;11.88;;;7.25;;
67867;SDS011;54672;46.096;14.470;2022-09-03T06:04:02;8.10;;;7.13;;
67867;SDS011;54672;46.096;14.470;2022-09-03T06:06:31;8.23;;;6.72;;
67867;SDS011;54672;46.096;14.470;2022-09-03T06:08:58;8.88;;;6.20;;
67867;SDS011;54672;46.096;14.470;2022-09-03T06:11:26;7.68;;;6.10;;
67867;SDS011;54672;46.096;14.470;2022-09-03T06:13:53;11.45;;;6.40;;
67867;SDS011;54672;46.096;14.470;2022-09-03T06:16:20;9.73;;;6.72;;
67867;SDS011;54672;46.096;14.470;2022-09-03T06:18:46;9.43;;;6.88;;
67867;SDS011;54672;46.096;14.470;2022-09-03T06:21:13;8.30;;;6.50;;
67867;SDS011;54672;46.096;14.470;2022-09-03T06:23:39;7.65;;;6.30;;
67867;SDS011;54672;46.096;14.470;2022-09-03T06:26:14;7.85;;;6.57;;
67867;SDS011;54672;46.096;14.470;2022-09-03T06:28:40;8.73;;;6.97;;
67867;SDS011;54672;46.096;14.470;2022-09-03T06:31:10;8.52;;;6.43;;
67867;SDS011;54672;46.096;14.470;2022-09-03T06:33:37;9.32;;;6.20;;
67867;SDS011;54672;46.096;14.470;2022-09-03T06:36:04;82.93;;;21.10;;
67867;SDS011;54672;46.096;14.470;2022-09-03T06:38:32;8.13;;;6.88;;
67867;SDS011;54672;46.096;14.470;2022-09-03T06:41:00;11.18;;;7.70;;
67867;SDS011;54672;46.096;14.470;2022-09-03T06:43:32;8.10;;;6.78;;
67867;SDS011;54672;46.096;14.470;2022-09-03T06:46:00;8.30;;;6.40;;
67867;SDS011;54672;46.096;14.470;2022-09-03T06:48:28;8.25;;;7.40;;
67867;SDS011;54672;46.096;14.470;2022-09-03T06:50:59;9.38;;;6.43;;
67867;SDS011;54672;46.096;14.470;2022-09-03T06:53:27;10.15;;;6.97;;
67867;SDS011;54672;46.096;14.470;2022-09-03T06:55:55;15.35;;;13.90;;
67867;SDS011;54672;46.096;14.470;2022-09-03T06:58:23;9.35;;;7.85;;
67867;SDS011;54672;46.096;14.470;2022-09-03T07:00:52;10.30;;;7.75;;
67867;SDS011;54672;46.096;14.470;2022-09-03T07:03:18;12.00;;;7.22;;
67867;SDS011;54672;46.096;14.470;2022-09-03T07:05:44;12.73;;;7.57;;
67867;SDS011;54672;46.096;14.470;2022-09-03T07:08:10;13.02;;;6.97;;
67867;SDS011;54672;46.096;14.470;2022-09-03T07:10:36;10.27;;;7.40;;
67867;SDS011;54672;46.096;14.470;2022-09-03T07:13:01;15.38;;;7.22;;
67867;SDS011;54672;46.096;14.470;2022-09-03T07:15:27;9.10;;;7.28;;
67867;SDS011;54672;46.096;14.470;2022-09-03T07:17:53;8.27;;;7.05;;
67867;SDS011;54672;46.096;14.470;2022-09-03T07:20:19;8.35;;;6.55;;
67867;SDS011;54672;46.096;14.470;2022-09-03T07:22:44;6.90;;;6.07;;
67867;SDS011;54672;46.096;14.470;2022-09-03T07:25:10;9.23;;;6.18;;
67867;SDS011;54672;46.096;14.470;2022-09-03T07:27:35;9.23;;;6.55;;
67867;SDS011;54672;46.096;14.470;2022-09-03T07:30:01;6.68;;;5.97;;
67867;SDS011;54672;46.096;14.470;2022-09-03T07:32:27;9.30;;;5.97;;
67867;SDS011;54672;46.096;14.470;2022-09-03T07:34:53;6.63;;;6.03;;
67867;SDS011;54672;46.096;14.470;2022-09-03T07:37:18;40.72;;;22.70;;
67867;SDS011;54672;46.096;14.470;2022-09-03T07:39:44;8.00;;;6.10;;
67867;SDS011;54672;46.096;14.470;2022-09-03T07:42:10;34.60;;;8.70;;
67867;SDS011;54672;46.096;14.470;2022-09-03T07:44:36;8.48;;;5.95;;
67867;SDS011;54672;46.096;14.470;2022-09-03T07:47:01;9.35;;;8.48;;
67867;SDS011;54672;46.096;14.470;2022-09-03T07:49:27;10.82;;;6.72;;
67867;SDS011;54672;46.096;14.470;2022-09-03T07:51:52;6.63;;;5.68;;
67867;SDS011;54672;46.096;14.470;2022-09-03T07:54:18;7.15;;;5.10;;
67867;SDS011;54672;46.096;14.470;2022-09-03T07:56:45;7.00;;;5.97;;
67867;SDS011;54672;46.096;14.470;2022-09-03T07:59:11;6.80;;;5.63;;
67867;SDS011;54672;46.096;14.470;2022-09-03T08:01:37;6.20;;;5.53;;
67867;SDS011;54672;46.096;14.470;2022-09-03T08:04:02;10.63;;;5.93;;
67867;SDS011;54672;46.096;14.470;2022-09-03T08:06:31;6.72;;;5.70;;
67867;SDS011;54672;46.096;14.470;2022-09-03T08:08:58;7.72;;;5.57;;
67867;SDS011;54672;46.096;14.470;2022-09-03T08:11:26;6.60;;;5.43;;
67867;SDS011;54672;46.096;14.470;2022-09-03T08:13:57;6.70;;;5.15;;
67867;SDS011;54672;46.096;14.470;2022-09-03T08:16:26;8.23;;;5.45;;
67867;SDS011;54672;46.096;14.470;2022-09-03T08:18:56;6.93;;;5.32;;
67867;SDS011;54672;46.096;14.470;2022-09-03T08:21:22;7.35;;;5.40;;
67867;SDS011;54672;46.096;14.470;2022-09-03T08:23:50;9.60;;;5.20;;
67867;SDS011;54672;46.096;14.470;2022-09-03T08:26:17;6.60;;;5.22;;
67867;SDS011;54672;46.096;14.470;2022-09-03T08:28:44;7.63;;;5.63;;
67867;SDS011;54672;46.096;14.470;2022-09-03T08:31:14;7.10;;;4.85;;
67867;SDS011;54672;46.096;14.470;2022-09-03T08:33:47;10.18;;;4.90;;
67867;SDS011;54672;46.096;14.470;2022-09-03T08:36:15;5.95;;;4.78;;
67867;SDS011;54672;46.096;14.470;2022-09-03T08:38:41;7.80;;;4.72;;
67867;SDS011;54672;46.096;14.470;2022-09-03T08:41:12;5.75;;;4.00;;
67867;SDS011;54672;46.096;14.470;2022-09-03T08:49:41;7.75;;;4.60;;
67867;SDS011;54672;46.096;14.470;2022-09-03T08:52:37;6.78;;;4.70;;
67867;SDS011;54672;46.096;14.470;2022-09-03T08:57:48;8.05;;;4.90;;
67867;SDS011;54672;46.096;14.470;2022-09-03T09:00:15;5.95;;;4.78;;
67867;SDS011;54672;46.096;14.470;2022-09-03T09:05:16;7.47;;;4.65;;
67867;SDS011;54672;46.096;14.470;2022-09-03T09:10:47;11.38;;;4.40;;
67867;SDS011;54672;46.096;14.470;2022-09-03T09:13:31;6.80;;;4.73;;
67867;SDS011;54672;46.096;14.470;2022-09-03T09:21:26;5.30;;;3.60;;
67867;SDS011;54672;46.096;14.470;2022-09-03T09:23:54;6.88;;;3.55;;
67867;SDS011;54672;46.096;14.470;2022-09-03T09:26:26;4.93;;;3.33;;
67867;SDS011;54672;46.096;14.470;2022-09-03T09:28:54;5.70;;;3.80;;
67867;SDS011;54672;46.096;14.470;2022-09-03T09:31:23;4.47;;;3.63;;
67867;SDS011;54672;46.096;14.470;2022-09-03T09:33:49;7.70;;;3.65;;
67867;SDS011;54672;46.096;14.470;2022-09-03T09:36:16;4.05;;;3.15;;
67867;SDS011;54672;46.096;14.470;2022-09-03T09:38:43;6.95;;;3.33;;
67867;SDS011;54672;46.096;14.470;2022-09-03T09:41:14;3.90;;;3.13;;
67867;SDS011;54672;46.096;14.470;2022-09-03T09:43:42;5.45;;;3.30;;
67867;SDS011;54672;46.096;14.470;2022-09-03T09:52:26;4.85;;;3.35;;
67867;SDS011;54672;46.096;14.470;2022-09-03T09:54:49;5.15;;;3.47;;
67867;SDS011;54672;46.096;14.470;2022-09-03T09:57:17;5.22;;;3.08;;
67867;SDS011;54672;46.096;14.470;2022-09-03T09:59:46;6.30;;;3.58;;
67867;SDS011;54672;46.096;14.470;2022-09-03T10:02:16;5.57;;;3.00;;
67867;SDS011;54672;46.096;14.470;2022-09-03T10:04:50;5.28;;;3.00;;
67867;SDS011;54672;46.096;14.470;2022-09-03T10:07:28;5.13;;;2.50;;
67867;SDS011;54672;46.096;14.470;2022-09-03T10:10:00;4.00;;;2.78;;
67867;SDS011;54672;46.096;14.470;2022-09-03T10:17:51;6.95;;;2.78;;
67867;SDS011;54672;46.096;14.470;2022-09-03T10:20:18;8.73;;;3.15;;
67867;SDS011;54672;46.096;14.470;2022-09-03T10:25:35;3.95;;;2.97;;
67867;SDS011;54672;46.096;14.470;2022-09-03T10:28:05;5.53;;;2.90;;
67867;SDS011;54672;46.096;14.470;2022-09-03T10:30:38;3.50;;;2.90;;
67867;SDS011;54672;46.096;14.470;2022-09-03T10:33:35;4.65;;;2.90;;
67867;SDS011;54672;46.096;14.470;2022-09-03T10:39:17;4.10;;;2.83;;
67867;SDS011;54672;46.096;14.470;2022-09-03T10:47:20;3.42;;;2.83;;
67867;SDS011;54672;46.096;14.470;2022-09-03T10:58:39;6.47;;;3.13;;
67867;SDS011;54672;46.096;14.470;2022-09-03T11:01:09;4.72;;;3.28;;
67867;SDS011;54672;46.096;14.470;2022-09-03T11:06:53;3.78;;;2.60;;
67867;SDS011;54672;46.096;14.470;2022-09-03T11:09:26;3.53;;;2.50;;
67867;SDS011;54672;46.096;14.470;2022-09-03T11:12:07;5.13;;;2.47;;
67867;SDS011;54672;46.096;14.470;2022-09-03T11:14:38;4.10;;;2.20;;
67867;SDS011;54672;46.096;14.470;2022-09-03T11:17:21;3.45;;;2.67;;
67867;SDS011;54672;46.096;14.470;2022-09-03T11:19:51;3.20;;;2.85;;
67867;SDS011;54672;46.096;14.470;2022-09-03T11:22:23;2.97;;;2.05;;
67867;SDS011;54672;46.096;14.470;2022-09-03T11:24:54;4.75;;;2.88;;
67867;SDS011;54672;46.096;14.470;2022-09-03T11:27:35;2.53;;;2.33;;
67867;SDS011;54672;46.096;14.470;2022-09-03T11:30:11;2.80;;;2.50;;
67867;SDS011;54672;46.096;14.470;2022-09-03T11:35:12;2.90;;;2.50;;
67867;SDS011;54672;46.096;14.470;2022-09-03T11:37:49;3.00;;;2.70;;
67867;SDS011;54672;46.096;14.470;2022-09-03T11:40:34;6.10;;;2.70;;
67867;SDS011;54672;46.096;14.470;2022-09-03T11:46:00;3.55;;;2.67;;
67867;SDS011;54672;46.096;14.470;2022-09-03T11:48:49;5.22;;;3.10;;
67867;SDS011;54672;46.096;14.470;2022-09-03T11:51:35;3.17;;;2.67;;
67867;SDS011;54672;46.096;14.470;2022-09-03T11:56:36;5.40;;;2.85;;
67867;SDS011;54672;46.096;14.470;2022-09-03T12:04:48;3.83;;;2.90;;
67867;SDS011;54672;46.096;14.470;2022-09-03T12:18:20;3.63;;;2.53;;
67867;SDS011;54672;46.096;14.470;2022-09-03T12:23:33;4.18;;;2.65;;
67867;SDS011;54672;46.096;14.470;2022-09-03T12:26:05;3.92;;;2.70;;
67867;SDS011;54672;46.096;14.470;2022-09-03T12:28:36;3.58;;;2.55;;
67867;SDS011;54672;46.096;14.470;2022-09-03T12:31:22;3.25;;;2.60;;
67867;SDS011;54672;46.096;14.470;2022-09-03T12:34:13;3.80;;;2.97;;
67867;SDS011;54672;46.096;14.470;2022-09-03T12:36:48;3.15;;;2.35;;
67867;SDS011;54672;46.096;14.470;2022-09-03T12:39:16;2.72;;;2.40;;
67867;SDS011;54672;46.096;14.470;2022-09-03T12:42:03;3.20;;;2.53;;
67867;SDS011;54672;46.096;14.470;2022-09-03T12:52:03;4.32;;;2.50;;
67867;SDS011;54672;46.096;14.470;2022-09-03T12:54:33;4.25;;;2.90;;
67867;SDS011;54672;46.096;14.470;2022-09-03T12:57:02;3.42;;;2.40;;
67867;SDS011;54672;46.096;14.470;2022-09-03T12:59:30;4.97;;;2.33;;
67867;SDS011;54672;46.096;14.470;2022-09-03T13:02:00;7.07;;;2.30;;
67867;SDS011;54672;46.096;14.470;2022-09-03T13:04:37;6.90;;;2.50;;
67867;SDS011;54672;46.096;14.470;2022-09-03T13:07:10;3.25;;;2.33;;
67867;SDS011;54672;46.096;14.470;2022-09-03T13:09:45;3.28;;;2.55;;
67867;SDS011;54672;46.096;14.470;2022-09-03T13:12:31;3.40;;;2.20;;
67867;SDS011;54672;46.096;14.470;2022-09-03T13:15:04;3.15;;;2.45;;
67867;SDS011;54672;46.096;14.470;2022-09-03T13:22:58;3.72;;;2.00;;
67867;SDS011;54672;46.096;14.470;2022-09-03T13:33:56;3.03;;;2.25;;
67867;SDS011;54672;46.096;14.470;2022-09-03T13:36:40;3.90;;;2.17;;
67867;SDS011;54672;46.096;14.470;2022-09-03T13:42:10;3.58;;;2.22;;
67867;SDS011;54672;46.096;14.470;2022-09-03T13:47:38;4.70;;;2.30;;
67867;SDS011;54672;46.096;14.470;2022-09-03T13:50:24;2.55;;;2.35;;
67867;SDS011;54672;46.096;14.470;2022-09-03T13:55:32;3.30;;;2.45;;
67867;SDS011;54672;46.096;14.470;2022-09-03T14:00:46;7.05;;;2.30;;
67867;SDS011;54672;46.096;14.470;2022-09-03T14:14:47;3.25;;;2.05;;
67867;SDS011;54672;46.096;14.470;2022-09-03T14:17:22;3.15;;;2.03;;
67867;SDS011;54672;46.096;14.470;2022-09-03T14:20:17;3.63;;;2.33;;
67867;SDS011;54672;46.096;14.470;2022-09-03T14:25:50;2.30;;;2.10;;
67867;SDS011;54672;46.096;14.470;2022-09-03T14:28:30;3.58;;;2.95;;
67867;SDS011;54672;46.096;14.470;2022-09-03T14:31:13;4.93;;;2.35;;
67867;SDS011;54672;46.096;14.470;2022-09-03T14:36:49;2.50;;;1.80;;
67867;SDS011;54672;46.096;14.470;2022-09-03T14:45:26;2.10;;;1.90;;
67867;SDS011;54672;46.096;14.470;2022-09-03T14:50:27;4.82;;;2.30;;
67867;SDS011;54672;46.096;14.470;2022-09-03T14:53:35;3.30;;;1.80;;
67867;SDS011;54672;46.096;14.470;2022-09-03T15:12:56;4.30;;;2.50;;
67867;SDS011;54672;46.096;14.470;2022-09-03T15:18:02;3.70;;;2.55;;
67867;SDS011;54672;46.096;14.470;2022-09-03T15:20:50;5.13;;;3.10;;
67867;SDS011;54672;46.096;14.470;2022-09-03T15:33:39;2.90;;;2.35;;
67867;SDS011;54672;46.096;14.470;2022-09-03T15:38:41;5.22;;;2.78;;
67867;SDS011;54672;46.096;14.470;2022-09-03T15:44:20;5.85;;;2.72;;
67867;SDS011;54672;46.096;14.470;2022-09-03T15:46:48;3.55;;;2.25;;
67867;SDS011;54672;46.096;14.470;2022-09-03T15:55:25;4.05;;;2.65;;
67867;SDS011;54672;46.096;14.470;2022-09-03T16:00:49;4.10;;;2.90;;
67867;SDS011;54672;46.096;14.470;2022-09-03T16:03:21;3.25;;;2.40;;
67867;SDS011;54672;46.096;14.470;2022-09-03T16:06:03;4.50;;;2.85;;
67867;SDS011;54672;46.096;14.470;2022-09-03T16:08:42;5.47;;;2.65;;
67867;SDS011;54672;46.096;14.470;2022-09-03T16:25:14;3.80;;;2.50;;
67867;SDS011;54672;46.096;14.470;2022-09-03T16:30:41;4.50;;;2.20;;
67867;SDS011;54672;46.096;14.470;2022-09-03T16:36:28;3.95;;;2.50;;
67867;SDS011;54672;46.096;14.470;2022-09-03T16:42:03;3.17;;;2.70;;
67867;SDS011;54672;46.096;14.470;2022-09-03T16:44:45;4.10;;;2.58;;
67867;SDS011;54672;46.096;14.470;2022-09-03T16:50:20;2.60;;;2.00;;
67867;SDS011;54672;46.096;14.470;2022-09-03T16:55:48;2.92;;;2.08;;
67867;SDS011;54672;46.096;14.470;2022-09-03T16:58:42;2.70;;;1.80;;
67867;SDS011;54672;46.096;14.470;2022-09-03T17:06:53;4.68;;;3.17;;
67867;SDS011;54672;46.096;14.470;2022-09-03T17:18:01;4.13;;;2.40;;
67867;SDS011;54672;46.096;14.470;2022-09-03T17:26:20;3.83;;;2.15;;
67867;SDS011;54672;46.096;14.470;2022-09-03T17:49:00;3.28;;;1.90;;
67867;SDS011;54672;46.096;14.470;2022-09-03T18:02:00;6.15;;;5.60;;
67867;SDS011;54672;46.096;14.470;2022-09-03T18:05:00;4.13;;;2.40;;
67867;SDS011;54672;46.096;14.470;2022-09-03T18:10:29;4.47;;;2.55;;
67867;SDS011;54672;46.096;14.470;2022-09-03T18:13:40;4.40;;;2.60;;
67867;SDS011;54672;46.096;14.470;2022-09-03T18:21:33;3.67;;;2.65;;
67867;SDS011;54672;46.096;14.470;2022-09-03T18:24:28;4.18;;;2.47;;
67867;SDS011;54672;46.096;14.470;2022-09-03T18:30:09;3.60;;;2.17;;
67867;SDS011;54672;46.096;14.470;2022-09-03T18:32:56;5.93;;;2.15;;
67867;SDS011;54672;46.096;14.470;2022-09-03T18:35:42;3.38;;;2.35;;
67867;SDS011;54672;46.096;14.470;2022-09-03T18:38:28;4.60;;;2.55;;
67867;SDS011;54672;46.096;14.470;2022-09-03T18:41:22;4.60;;;2.85;;
67867;SDS011;54672;46.096;14.470;2022-09-03T18:50:35;4.55;;;2.75;;
67867;SDS011;54672;46.096;14.470;2022-09-03T18:53:33;4.78;;;2.90;;
67867;SDS011;54672;46.096;14.470;2022-09-03T19:15:02;3.60;;;2.60;;
67867;SDS011;54672;46.096;14.470;2022-09-03T19:18:01;3.50;;;2.22;;
67867;SDS011;54672;46.096;14.470;2022-09-03T19:23:49;3.60;;;2.35;;
67867;SDS011;54672;46.096;14.470;2022-09-03T19:26:43;2.97;;;2.25;;
67867;SDS011;54672;46.096;14.470;2022-09-03T19:29:44;4.15;;;2.10;;
67867;SDS011;54672;46.096;14.470;2022-09-03T19:32:43;4.57;;;2.40;;
67867;SDS011;54672;46.096;14.470;2022-09-03T19:35:39;4.28;;;2.20;;
67867;SDS011;54672;46.096;14.470;2022-09-03T19:41:34;3.80;;;2.50;;
67867;SDS011;54672;46.096;14.470;2022-09-03T19:47:31;5.13;;;2.50;;
67867;SDS011;54672;46.096;14.470;2022-09-03T19:50:33;3.67;;;2.63;;
67867;SDS011;54672;46.096;14.470;2022-09-03T19:53:23;3.63;;;2.45;;
67867;SDS011;54672;46.096;14.470;2022-09-03T19:56:18;3.85;;;2.58;;
67867;SDS011;54672;46.096;14.470;2022-09-03T19:59:12;3.88;;;2.50;;
67867;SDS011;54672;46.096;14.470;2022-09-03T20:02:00;3.95;;;2.70;;
67867;SDS011;54672;46.096;14.470;2022-09-03T20:04:47;4.15;;;2.50;;
67867;SDS011;54672;46.096;14.470;2022-09-03T20:10:21;4.05;;;2.70;;
67867;SDS011;54672;46.096;14.470;2022-09-03T20:13:10;4.07;;;2.50;;
67867;SDS011;54672;46.096;14.470;2022-09-03T20:15:44;4.75;;;2.72;;
67867;SDS011;54672;46.096;14.470;2022-09-03T20:18:16;3.72;;;2.70;;
67867;SDS011;54672;46.096;14.470;2022-09-03T20:29:44;6.28;;;2.95;;
67867;SDS011;54672;46.096;14.470;2022-09-03T20:32:32;3.28;;;2.40;;
67867;SDS011;54672;46.096;14.470;2022-09-03T20:37:40;5.22;;;3.20;;
67867;SDS011;54672;46.096;14.470;2022-09-03T20:51:25;4.22;;;2.50;;
67867;SDS011;54672;46.096;14.470;2022-09-03T20:54:05;3.72;;;2.80;;
67867;SDS011;54672;46.096;14.470;2022-09-03T21:11:05;5.15;;;2.75;;
67867;SDS011;54672;46.096;14.470;2022-09-03T21:13:47;3.42;;;2.63;;
67867;SDS011;54672;46.096;14.470;2022-09-03T21:19:33;4.65;;;2.72;;
67867;SDS011;54672;46.096;14.470;2022-09-03T21:21:57;4.00;;;2.40;;
67867;SDS011;54672;46.096;14.470;2022-09-03T21:24:33;4.70;;;2.60;;
67867;SDS011;54672;46.096;14.470;2022-09-03T21:27:09;3.97;;;2.75;;
67867;SDS011;54672;46.096;14.470;2022-09-03T21:29:40;6.33;;;3.00;;
67867;SDS011;54672;46.096;14.470;2022-09-03T21:32:13;9.73;;;2.97;;
67867;SDS011;54672;46.096;14.470;2022-09-03T21:34:45;5.13;;;2.72;;
67867;SDS011;54672;46.096;14.470;2022-09-03T21:37:24;2.87;;;2.27;;
67867;SDS011;54672;46.096;14.470;2022-09-03T21:39:54;5.35;;;2.65;;
67867;SDS011;54672;46.096;14.470;2022-09-03T21:42:26;3.55;;;2.40;;
67867;SDS011;54672;46.096;14.470;2022-09-03T21:48:05;5.53;;;2.70;;